createdAt,value
2019-05-13T00:00:34.262Z,15.48
2019-05-13T00:03:03.792Z,14.23
2019-05-13T00:05:33.853Z,13.30
2019-05-13T00:08:03.442Z,12.73
2019-05-13T00:10:35.062Z,11.12
2019-05-13T00:13:04.525Z,14.20
2019-05-13T00:15:34.176Z,14.85
2019-05-13T00:18:04.030Z,16.73
2019-05-13T00:20:34.004Z,17.55
2019-05-13T00:23:03.903Z,19.95
2019-05-13T00:25:33.939Z,20.12
2019-05-13T00:28:04.157Z,18.30
2019-05-13T00:30:34.190Z,41.68
2019-05-13T00:33:03.962Z,15.95
2019-05-13T00:35:33.903Z,10.70
2019-05-13T00:38:03.780Z,9.78
2019-05-13T00:40:33.768Z,10.40
2019-05-13T00:43:03.803Z,8.30
2019-05-13T00:45:33.947Z,8.35
2019-05-13T00:48:04.622Z,6.87
2019-05-13T00:50:34.142Z,5.80
2019-05-13T00:53:04.306Z,6.22
2019-05-13T00:55:34.550Z,6.12
2019-05-13T00:58:04.786Z,5.53
2019-05-13T01:00:34.222Z,4.67
2019-05-13T01:03:03.977Z,5.53
2019-05-13T01:05:34.262Z,5.72
2019-05-13T01:08:04.206Z,9.40
2019-05-13T01:10:34.550Z,9.58
2019-05-13T01:13:04.615Z,9.03
2019-05-13T01:15:34.551Z,8.73
2019-05-13T01:18:04.131Z,7.30
2019-05-13T01:20:34.516Z,5.85
2019-05-13T01:23:04.109Z,5.65
2019-05-13T01:25:34.410Z,5.10
2019-05-13T01:28:04.633Z,4.15
2019-05-13T01:30:34.546Z,6.17
2019-05-13T01:33:04.453Z,5.40
2019-05-13T01:35:34.236Z,3.72
2019-05-13T01:38:04.538Z,3.45
2019-05-13T01:40:35.112Z,3.22
2019-05-13T01:43:04.060Z,3.30
2019-05-13T01:45:33.893Z,4.03
2019-05-13T01:48:07.409Z,6.17
2019-05-13T01:50:34.041Z,4.20
2019-05-13T01:53:04.266Z,5.97
2019-05-13T01:55:34.253Z,6.17
2019-05-13T01:58:04.332Z,5.22
2019-05-13T02:00:35.245Z,5.62
2019-05-13T02:03:04.486Z,6.80
2019-05-13T02:05:34.154Z,4.97
2019-05-13T02:08:04.608Z,7.70
2019-05-13T02:10:54.401Z,9.28
2019-05-13T02:13:24.551Z,12.40
2019-05-13T02:15:54.966Z,6.58
2019-05-13T02:18:24.727Z,4.85
2019-05-13T02:20:55.475Z,4.12
2019-05-13T02:23:24.499Z,4.03
2019-05-13T02:25:54.389Z,4.65
2019-05-13T02:28:24.626Z,3.85
2019-05-13T02:30:55.900Z,3.27
2019-05-13T02:33:24.524Z,2.47
2019-05-13T02:35:53.907Z,4.35
2019-05-13T02:38:29.374Z,2.70
2019-05-13T02:40:53.749Z,2.75
2019-05-13T02:43:23.695Z,3.45
2019-05-13T02:45:54.050Z,4.60
2019-05-13T02:48:24.000Z,4.70
2019-05-13T02:50:54.124Z,4.10
2019-05-13T02:53:24.226Z,3.08
2019-05-13T02:55:53.813Z,2.52
2019-05-13T02:58:24.166Z,4.67
2019-05-13T03:00:54.142Z,2.40
2019-05-13T03:03:23.726Z,1.70
2019-05-13T03:05:53.989Z,1.55
2019-05-13T03:08:39.597Z,2.62
2019-05-13T03:10:53.931Z,4.15
2019-05-13T03:13:24.007Z,1.70
2019-05-13T03:15:57.451Z,5.00
2019-05-13T03:18:26.285Z,1.92
2019-05-13T03:20:55.121Z,2.52
2019-05-13T03:23:23.978Z,1.60
2019-05-13T03:25:53.946Z,3.58
2019-05-13T03:28:22.904Z,3.45
2019-05-13T03:30:56.273Z,1.90
2019-05-13T03:33:27.990Z,1.20
2019-05-13T03:35:55.842Z,1.27
2019-05-13T03:38:23.720Z,1.60
2019-05-13T03:40:54.468Z,4.47
2019-05-13T03:43:24.307Z,8.38
2019-05-13T03:45:54.247Z,12.55
2019-05-13T03:48:23.754Z,9.88
2019-05-13T03:50:53.526Z,3.47
2019-05-13T03:53:23.431Z,2.00
2019-05-13T03:55:54.198Z,3.00
2019-05-13T03:58:23.990Z,3.05
2019-05-13T04:00:53.014Z,5.10
2019-05-13T04:03:22.901Z,4.17
2019-05-13T04:05:52.963Z,3.47
2019-05-13T04:08:22.965Z,1.50
2019-05-13T04:10:52.648Z,1.95
2019-05-13T04:13:23.262Z,1.75
2019-05-13T04:15:53.024Z,2.10
2019-05-13T04:18:23.438Z,1.62
2019-05-13T04:20:53.130Z,2.72
2019-05-13T04:23:23.348Z,1.40
2019-05-13T04:25:53.798Z,1.87
2019-05-13T04:28:22.864Z,3.12
2019-05-13T04:30:52.561Z,3.80
2019-05-13T04:33:23.047Z,3.42
2019-05-13T04:35:54.790Z,2.70
2019-05-13T04:38:23.622Z,3.92
2019-05-13T04:40:52.972Z,4.00
2019-05-13T04:43:23.558Z,3.90
2019-05-13T04:45:53.044Z,3.87
2019-05-13T04:48:22.832Z,5.40
2019-05-13T04:50:53.227Z,3.95
2019-05-13T04:53:22.905Z,2.55
2019-05-13T04:55:52.802Z,2.20
2019-05-13T04:58:23.471Z,1.55
2019-05-13T05:01:09.113Z,1.17
2019-05-13T05:03:52.810Z,1.30
2019-05-13T05:06:47.587Z,1.80
2019-05-13T05:10:13.024Z,1.80
2019-05-13T05:12:22.923Z,3.05
2019-05-13T05:15:02.973Z,2.10
2019-05-13T05:17:54.736Z,1.50
2019-05-13T05:21:01.489Z,2.00
2019-05-13T05:23:48.324Z,1.35
2019-05-13T05:26:42.435Z,2.67
2019-05-13T05:29:26.310Z,1.95
2019-05-13T05:32:22.657Z,1.37
2019-05-13T05:35:14.149Z,1.70
2019-05-13T05:38:07.189Z,1.70
2019-05-13T05:43:06.771Z,2.12
2019-05-13T05:45:37.042Z,1.62
2019-05-13T05:48:07.697Z,1.20
2019-05-13T05:50:37.531Z,2.58
2019-05-13T05:53:06.881Z,1.30
2019-05-13T05:55:36.989Z,2.30
2019-05-13T05:58:09.172Z,1.40
2019-05-13T06:00:41.914Z,2.00
2019-05-13T06:03:13.859Z,2.15
2019-05-13T06:05:41.988Z,1.45
2019-05-13T06:08:11.476Z,1.47
2019-05-13T06:10:49.680Z,1.70
2019-05-13T06:13:12.261Z,1.82
2019-05-13T06:15:42.062Z,3.77
2019-05-13T06:18:11.654Z,3.20
2019-05-13T06:20:41.843Z,1.57
2019-05-13T06:23:11.475Z,1.05
2019-05-13T06:25:42.823Z,2.00
2019-05-13T06:28:12.373Z,2.00
2019-05-13T06:30:41.727Z,2.42
2019-05-13T06:33:12.067Z,2.00
2019-05-13T06:35:44.237Z,2.25
2019-05-13T06:38:11.928Z,1.20
2019-05-13T06:40:42.414Z,2.20
2019-05-13T06:43:12.046Z,1.32
2019-05-13T06:45:42.054Z,2.95
2019-05-13T06:48:11.760Z,2.12
2019-05-13T06:50:41.608Z,2.30
2019-05-13T06:53:12.707Z,2.10
2019-05-13T06:55:41.790Z,2.12
2019-05-13T06:58:11.511Z,2.25
2019-05-13T07:00:42.795Z,2.37
2019-05-13T07:03:12.649Z,1.90
2019-05-13T07:05:42.303Z,2.87
2019-05-13T07:08:11.997Z,2.62
2019-05-13T07:10:42.596Z,2.27
2019-05-13T07:13:11.639Z,2.33
2019-05-13T07:15:41.623Z,2.10
2019-05-13T07:18:22.328Z,2.72
2019-05-13T07:20:53.032Z,2.70
2019-05-13T07:23:22.413Z,3.00
2019-05-13T07:25:52.498Z,3.27
2019-05-13T07:28:21.993Z,3.35
2019-05-13T07:30:51.618Z,4.08
2019-05-13T07:33:21.345Z,3.70
2019-05-13T07:35:57.355Z,3.80
2019-05-13T07:38:22.276Z,3.77
2019-05-13T07:40:54.179Z,4.45
2019-05-13T07:43:22.908Z,3.97
2019-05-13T07:45:51.666Z,3.60
2019-05-13T07:48:24.115Z,4.60
2019-05-13T07:50:59.576Z,4.47
2019-05-13T07:53:22.156Z,4.05
2019-05-13T07:55:52.516Z,4.10
2019-05-13T07:58:22.862Z,5.10
2019-05-13T08:00:52.181Z,3.77
2019-05-13T08:03:21.531Z,5.00
2019-05-13T08:05:51.318Z,3.37
2019-05-13T08:08:22.040Z,4.47
2019-05-13T08:10:51.997Z,5.47
2019-05-13T08:13:22.496Z,4.25
2019-05-13T08:15:54.312Z,4.85
2019-05-13T08:18:22.268Z,5.35
2019-05-13T08:20:52.460Z,5.72
2019-05-13T08:23:21.791Z,5.72
2019-05-13T08:25:51.436Z,3.80
2019-05-13T08:28:22.584Z,5.90
2019-05-13T08:30:51.882Z,5.37
2019-05-13T08:33:22.630Z,5.42
2019-05-13T08:35:53.874Z,6.42
2019-05-13T08:38:22.998Z,5.25
2019-05-13T08:40:52.046Z,6.10
2019-05-13T08:43:22.561Z,5.30
2019-05-13T08:45:53.552Z,4.70
2019-05-13T08:48:22.279Z,5.58
2019-05-13T08:50:52.137Z,5.12
2019-05-13T08:53:21.298Z,4.55
2019-05-13T08:55:51.756Z,5.35
2019-05-13T08:58:21.696Z,4.92
2019-05-13T09:00:53.332Z,6.55
2019-05-13T09:03:23.064Z,3.80
2019-05-13T09:05:53.619Z,3.90
2019-05-13T09:08:23.541Z,3.62
2019-05-13T09:10:56.560Z,3.42
2019-05-13T09:13:23.039Z,3.67
2019-05-13T09:15:51.934Z,3.35
2019-05-13T09:18:22.843Z,2.77
2019-05-13T09:20:52.061Z,3.50
2019-05-13T09:23:22.257Z,3.52
2019-05-13T09:25:52.158Z,2.33
2019-05-13T09:28:22.045Z,2.77
2019-05-13T09:30:53.197Z,2.85
2019-05-13T09:33:22.035Z,2.47
2019-05-13T09:38:22.247Z,3.22
2019-05-13T09:40:53.041Z,2.70
2019-05-13T09:43:22.395Z,2.62
2019-05-13T09:45:52.277Z,2.80
2019-05-13T09:48:22.636Z,3.25
2019-05-13T09:50:51.874Z,4.10
2019-05-13T09:53:22.180Z,2.87
2019-05-13T09:55:52.333Z,2.75
2019-05-13T09:58:22.342Z,3.42
2019-05-13T10:00:52.776Z,3.45
2019-05-13T10:03:26.733Z,4.60
2019-05-13T10:05:52.415Z,2.67
2019-05-13T10:08:21.965Z,2.65
2019-05-13T10:10:52.807Z,3.42
2019-05-13T10:13:23.111Z,2.92
2019-05-13T10:15:52.341Z,2.87
2019-05-13T10:18:21.901Z,3.42
2019-05-13T10:23:28.505Z,4.03
2019-05-13T10:26:02.934Z,3.12
2019-05-13T10:28:32.327Z,3.50
2019-05-13T10:31:01.151Z,3.98
2019-05-13T10:33:31.830Z,3.58
2019-05-13T10:36:03.401Z,2.92
2019-05-13T10:38:32.457Z,3.33
2019-05-13T10:41:03.168Z,2.75
2019-05-13T10:43:32.942Z,3.45
2019-05-13T10:46:02.846Z,4.15
2019-05-13T10:48:31.905Z,2.83
2019-05-13T10:51:02.356Z,2.83
2019-05-13T10:53:32.098Z,3.80
2019-05-13T10:56:03.245Z,3.30
2019-05-13T10:58:31.749Z,2.62
2019-05-13T11:01:02.759Z,3.72
2019-05-13T11:03:32.855Z,3.10
2019-05-13T11:06:02.063Z,2.55
2019-05-13T11:08:33.133Z,3.05
2019-05-13T11:11:02.298Z,4.22
2019-05-13T11:13:49.629Z,3.22
2019-05-13T11:16:02.557Z,2.12
2019-05-13T11:18:31.429Z,4.25
2019-05-13T11:21:01.951Z,2.45
2019-05-13T11:23:32.239Z,2.40
2019-05-13T11:26:03.219Z,2.67
2019-05-13T11:28:32.449Z,2.70
2019-05-13T11:31:03.220Z,2.22
2019-05-13T11:33:32.070Z,3.37
2019-05-13T11:36:03.347Z,2.98
2019-05-13T11:38:32.884Z,4.40
2019-05-13T11:41:03.237Z,2.90
2019-05-13T11:43:33.227Z,2.65
2019-05-13T11:46:02.650Z,3.37
2019-05-13T11:48:32.355Z,3.00
2019-05-13T11:51:03.922Z,3.35
2019-05-13T11:53:36.395Z,4.60
2019-05-13T11:56:03.570Z,2.90
2019-05-13T11:58:32.888Z,3.80
2019-05-13T12:01:02.984Z,3.45
2019-05-13T12:03:32.528Z,3.58
2019-05-13T12:06:02.544Z,3.42
2019-05-13T12:08:33.888Z,4.70
2019-05-13T12:11:04.235Z,3.98
2019-05-13T12:13:33.191Z,3.35
2019-05-13T12:16:03.706Z,2.50
2019-05-13T12:18:32.558Z,4.00
2019-05-13T12:21:03.334Z,3.60
2019-05-13T12:23:31.839Z,3.17
2019-05-13T12:26:04.045Z,3.80
2019-05-13T12:28:31.196Z,4.70
2019-05-13T12:31:03.220Z,3.30
2019-05-13T12:33:32.672Z,6.92
2019-05-13T12:36:02.036Z,3.15
2019-05-13T12:38:33.797Z,4.65
2019-05-13T12:41:23.126Z,6.87
2019-05-13T12:43:53.889Z,15.58
2019-05-13T12:46:24.649Z,21.90
2019-05-13T12:48:53.151Z,9.10
2019-05-13T12:51:22.745Z,4.80
2019-05-13T12:53:52.764Z,2.75
2019-05-13T12:56:23.507Z,3.30
2019-05-13T12:58:52.697Z,3.85
2019-05-13T13:01:23.980Z,3.58
2019-05-13T13:03:51.980Z,3.00
2019-05-13T13:06:31.427Z,2.35
2019-05-13T13:08:51.423Z,5.47
2019-05-13T13:11:22.841Z,2.90
2019-05-13T13:14:00.041Z,3.20
2019-05-13T13:16:22.461Z,3.40
2019-05-13T13:18:52.552Z,3.95
2019-05-13T13:21:24.422Z,3.33
2019-05-13T13:23:52.860Z,2.37
2019-05-13T13:26:21.983Z,3.72
2019-05-13T13:28:55.553Z,3.65
2019-05-13T13:31:24.982Z,3.42
2019-05-13T13:36:24.359Z,5.15
2019-05-13T13:38:56.618Z,3.65
2019-05-13T13:41:26.078Z,3.72
2019-05-13T13:43:54.927Z,4.08
2019-05-13T13:48:55.679Z,3.00
2019-05-13T13:51:27.154Z,3.05
2019-05-13T13:53:56.914Z,3.50
2019-05-13T13:56:25.805Z,3.27
2019-05-13T13:58:58.318Z,4.20
2019-05-13T14:03:57.335Z,4.10
2019-05-13T14:06:25.163Z,2.00
2019-05-13T14:06:25.608Z,3.00
2019-05-13T14:07:09.415Z,3.30
2019-05-13T14:07:12.996Z,3.70
2019-05-13T14:07:21.983Z,3.15
2019-05-13T14:08:57.009Z,2.30
2019-05-13T14:11:25.879Z,3.00
2019-05-13T14:13:54.825Z,2.40
2019-05-13T14:16:30.727Z,4.12
2019-05-13T14:18:57.472Z,4.00
2019-05-13T14:21:32.456Z,3.67
2019-05-13T14:24:03.167Z,4.50
2019-05-13T14:26:33.029Z,6.50
2019-05-13T14:29:03.537Z,8.85
2019-05-13T14:31:33.676Z,6.95
2019-05-13T14:34:06.450Z,7.62
2019-05-13T14:39:12.047Z,3.25
2019-05-13T14:41:44.270Z,2.65
2019-05-13T14:44:13.939Z,3.65
2019-05-13T14:46:47.700Z,3.52
2019-05-13T14:49:13.541Z,2.77
2019-05-13T14:51:42.492Z,3.12
2019-05-13T14:54:12.969Z,3.25
2019-05-13T14:56:44.797Z,3.85
2019-05-13T15:02:04.169Z,3.55
2019-05-13T15:04:41.888Z,3.37
2019-05-13T15:07:21.639Z,3.45
2019-05-13T15:09:57.199Z,2.33
2019-05-13T15:12:27.423Z,4.10
2019-05-13T15:14:56.389Z,4.58
2019-05-13T15:17:28.094Z,4.70
2019-05-13T15:19:58.692Z,5.00
2019-05-13T15:22:42.175Z,5.10
2019-05-13T15:25:11.414Z,4.05
2019-05-13T15:27:42.025Z,4.40
2019-05-13T15:30:17.968Z,5.47
2019-05-13T15:32:48.451Z,6.70
2019-05-13T15:35:19.434Z,8.43
2019-05-13T15:37:52.287Z,7.45
2019-05-13T15:40:22.086Z,7.12
2019-05-13T15:42:51.710Z,7.20
2019-05-13T15:45:22.435Z,7.72
2019-05-13T15:47:51.758Z,12.10
2019-05-13T15:50:21.471Z,11.35
2019-05-13T15:52:50.899Z,16.05
2019-05-13T15:55:21.362Z,10.80
2019-05-13T15:57:51.839Z,12.70
2019-05-13T16:00:22.505Z,11.05
2019-05-13T16:02:52.285Z,9.88
2019-05-13T16:05:21.279Z,7.15
2019-05-13T16:07:52.365Z,8.53
2019-05-13T16:10:21.572Z,7.30
2019-05-13T16:12:52.077Z,4.75
2019-05-13T16:15:21.837Z,8.18
2019-05-13T16:17:52.679Z,10.63
2019-05-13T16:20:25.009Z,12.30
2019-05-13T16:22:53.332Z,11.97
2019-05-13T16:25:22.317Z,13.58
2019-05-13T16:27:52.042Z,14.55
2019-05-13T16:30:22.254Z,14.87
2019-05-13T16:32:52.073Z,12.65
2019-05-13T16:35:21.571Z,14.47
2019-05-13T16:37:50.441Z,14.25
2019-05-13T16:40:22.245Z,10.98
2019-05-13T16:42:51.950Z,12.37
2019-05-13T16:45:21.883Z,13.08
2019-05-13T16:47:58.257Z,8.98
2019-05-13T16:50:23.215Z,10.82
2019-05-13T16:52:52.188Z,9.45
2019-05-13T16:55:25.290Z,10.38
2019-05-13T16:57:54.309Z,10.20
2019-05-13T17:00:26.890Z,11.10
2019-05-13T17:05:24.445Z,12.35
2019-05-13T17:07:58.489Z,14.20
2019-05-13T17:10:27.851Z,16.30
2019-05-13T17:13:02.959Z,17.35
2019-05-13T17:15:36.326Z,14.70
2019-05-13T17:18:11.583Z,18.25
2019-05-13T17:20:37.639Z,14.73
2019-05-13T17:23:08.213Z,17.30
2019-05-13T17:25:37.236Z,12.65
2019-05-13T17:28:07.845Z,7.83
2019-05-13T17:30:45.540Z,8.45
2019-05-13T17:33:17.469Z,8.33
2019-05-13T17:35:48.905Z,8.25
2019-05-13T17:38:19.206Z,6.15
2019-05-13T17:40:53.211Z,6.15
2019-05-13T17:43:22.277Z,7.17
2019-05-13T17:45:52.300Z,6.22
2019-05-13T17:48:28.379Z,7.22
2019-05-13T17:50:54.543Z,6.65
2019-05-13T17:53:23.670Z,6.05
2019-05-13T17:55:54.157Z,7.12
2019-05-13T17:58:23.495Z,7.22
2019-05-13T18:00:54.089Z,6.83
2019-05-13T18:03:23.282Z,10.72
2019-05-13T18:05:52.376Z,9.73
2019-05-13T18:08:22.970Z,10.70
2019-05-13T18:10:55.237Z,8.48
2019-05-13T18:13:29.852Z,12.25
2019-05-13T18:15:58.974Z,13.48
2019-05-13T18:18:43.223Z,10.30
2019-05-13T18:21:05.466Z,17.42
2019-05-13T18:23:41.299Z,12.65
2019-05-13T18:26:12.405Z,16.10
2019-05-13T18:28:42.270Z,16.90
2019-05-13T18:31:12.247Z,11.95
2019-05-13T18:33:42.387Z,8.33
2019-05-13T18:36:12.059Z,4.72
2019-05-13T18:38:44.065Z,6.62
2019-05-13T18:41:14.347Z,2.37
2019-05-13T18:43:43.511Z,2.62
2019-05-13T18:46:12.632Z,3.35
2019-05-13T18:48:57.652Z,4.75
2019-05-13T18:51:12.111Z,6.37
2019-05-13T18:53:48.187Z,5.87
2019-05-13T18:56:17.045Z,6.45
2019-05-13T18:58:45.889Z,8.18
2019-05-13T19:01:14.802Z,6.47
2019-05-13T19:03:45.362Z,12.95
2019-05-13T19:06:15.647Z,7.65
2019-05-13T19:08:44.575Z,7.25
2019-05-13T19:11:13.450Z,9.48
2019-05-13T19:13:42.564Z,14.55
2019-05-13T19:16:11.899Z,15.00
2019-05-13T19:18:42.304Z,14.73
2019-05-13T19:21:11.369Z,17.05
2019-05-13T19:23:41.940Z,14.85
2019-05-13T19:26:11.371Z,16.05
2019-05-13T19:28:40.317Z,16.32
2019-05-13T19:31:11.399Z,17.90
2019-05-13T19:33:41.633Z,11.40
2019-05-13T19:36:13.824Z,9.93
2019-05-13T19:38:42.887Z,11.43
2019-05-13T19:41:12.004Z,13.38
2019-05-13T19:43:42.031Z,18.67
2019-05-13T19:46:11.029Z,16.10
2019-05-13T19:48:41.704Z,15.08
2019-05-13T19:51:10.816Z,16.97
2019-05-13T19:53:44.707Z,17.55
2019-05-13T19:56:11.999Z,18.20
2019-05-13T19:58:41.334Z,20.82
2019-05-13T20:01:11.640Z,21.75
2019-05-13T20:03:42.349Z,25.23
2019-05-13T20:06:15.949Z,25.95
2019-05-13T20:08:44.760Z,23.40
2019-05-13T20:11:13.600Z,18.23
2019-05-13T20:13:42.457Z,18.30
2019-05-13T20:16:11.865Z,18.35
2019-05-13T20:18:41.454Z,20.80
2019-05-13T20:21:13.385Z,18.37
2019-05-13T20:23:41.583Z,19.95
2019-05-13T20:26:10.474Z,17.20
2019-05-13T20:28:39.370Z,12.75
2019-05-13T20:31:08.255Z,10.55
2019-05-13T20:33:39.987Z,6.87
2019-05-13T20:36:08.923Z,8.18
2019-05-13T20:38:37.758Z,7.35
2019-05-13T20:41:08.095Z,4.87
2019-05-13T20:43:36.964Z,3.80
2019-05-13T20:46:06.822Z,4.70
2019-05-13T20:48:35.689Z,6.90
2019-05-13T20:51:04.508Z,6.10
2019-05-13T20:53:33.379Z,5.67
2019-05-13T20:56:02.183Z,3.98
2019-05-13T20:58:31.844Z,4.28
2019-05-13T21:01:02.277Z,3.52
2019-05-13T21:03:31.735Z,5.65
2019-05-13T21:06:00.699Z,6.55
2019-05-13T21:08:31.941Z,6.15
2019-05-13T21:11:02.108Z,6.30
2019-05-13T21:13:31.826Z,7.28
2019-05-13T21:16:02.271Z,6.67
2019-05-13T21:18:31.721Z,5.50
2019-05-13T21:21:00.966Z,9.00
2019-05-13T21:23:31.457Z,6.03
2019-05-13T21:26:01.586Z,3.67
2019-05-13T21:28:30.762Z,2.60
2019-05-13T21:31:01.941Z,2.60
2019-05-13T21:33:31.445Z,2.60
2019-05-13T21:36:01.711Z,2.10
2019-05-13T21:38:32.468Z,1.92
2019-05-13T21:41:01.496Z,2.20
2019-05-13T21:43:32.417Z,3.00
2019-05-13T21:46:01.913Z,2.87
2019-05-13T21:48:32.442Z,1.67
2019-05-13T21:51:01.557Z,2.00
2019-05-13T21:53:32.695Z,2.75
2019-05-13T21:56:02.272Z,2.42
2019-05-13T21:58:31.492Z,1.72
2019-05-13T22:01:01.622Z,2.33
2019-05-13T22:03:33.137Z,1.95
2019-05-13T22:06:02.021Z,2.52
2019-05-13T22:08:32.111Z,2.50
2019-05-13T22:11:01.770Z,1.87
2019-05-13T22:13:31.524Z,2.60
2019-05-13T22:16:01.716Z,2.02
2019-05-13T22:18:31.385Z,2.77
2019-05-13T22:21:01.361Z,1.90
2019-05-13T22:23:32.204Z,1.60
2019-05-13T22:26:01.840Z,1.62
2019-05-13T22:28:31.372Z,2.72
2019-05-13T22:31:01.342Z,2.02
2019-05-13T22:33:32.366Z,2.25
2019-05-13T22:36:01.729Z,2.05
2019-05-13T22:38:32.279Z,1.52
2019-05-13T22:41:01.607Z,1.70
2019-05-13T22:43:31.965Z,1.57
2019-05-13T22:46:00.913Z,1.82
2019-05-13T22:48:31.768Z,2.22
2019-05-13T22:51:02.783Z,2.47
2019-05-13T22:53:32.026Z,2.90
2019-05-13T22:56:00.968Z,2.47
2019-05-13T22:58:31.840Z,4.00
2019-05-13T23:01:02.481Z,4.62
2019-05-13T23:03:32.407Z,5.95
2019-05-13T23:06:01.558Z,9.45
2019-05-13T23:08:32.424Z,8.03
2019-05-13T23:11:02.042Z,10.30
2019-05-13T23:13:31.371Z,7.60
2019-05-13T23:16:02.328Z,5.28
2019-05-13T23:18:31.662Z,3.50
2019-05-13T23:21:02.355Z,2.37
2019-05-13T23:23:31.145Z,2.47
2019-05-13T23:26:00.076Z,1.05
2019-05-13T23:28:28.901Z,1.60
2019-05-13T23:30:57.741Z,1.50
2019-05-13T23:33:26.557Z,1.45
2019-05-13T23:35:55.390Z,1.98
2019-05-13T23:38:24.216Z,1.75
2019-05-13T23:40:53.153Z,1.90
2019-05-13T23:43:21.962Z,1.45
2019-05-13T23:46:11.766Z,1.70
2019-05-13T23:48:41.331Z,2.22
2019-05-13T23:51:10.195Z,2.55
2019-05-13T23:53:39.029Z,1.40
2019-05-13T23:56:07.866Z,2.05
2019-05-13T23:58:36.682Z,1.60
